sensor_id;sensor_type;location;lat;lon;timestamp;pressure;altitude;pressure_sealevel;temperature;humidity
11678;BME280;5895;41.950;24.372;2023-05-13T00:01:13;87159.53;;;5.35;100.00
11678;BME280;5895;41.950;24.372;2023-05-13T00:03:40;87161.88;;;5.29;100.00
11678;BME280;5895;41.950;24.372;2023-05-13T00:06:07;87165.00;;;5.25;100.00
11678;BME280;5895;41.950;24.372;2023-05-13T00:08:34;87176.88;;;5.26;100.00
11678;BME280;5895;41.950;24.372;2023-05-13T00:11:03;87183.22;;;5.23;100.00
11678;BME280;5895;41.950;24.372;2023-05-13T00:13:30;87177.28;;;5.23;100.00
11678;BME280;5895;41.950;24.372;2023-05-13T00:15:57;87166.19;;;5.22;100.00
11678;BME280;5895;41.950;24.372;2023-05-13T00:18:26;87170.34;;;5.23;100.00
11678;BME280;5895;41.950;24.372;2023-05-13T00:20:53;87171.34;;;5.22;100.00
11678;BME280;5895;41.950;24.372;2023-05-13T00:23:20;87174.72;;;5.23;100.00
11678;BME280;5895;41.950;24.372;2023-05-13T00:25:47;87162.63;;;5.23;100.00
11678;BME280;5895;41.950;24.372;2023-05-13T00:28:14;87174.50;;;5.24;100.00
11678;BME280;5895;41.950;24.372;2023-05-13T00:30:42;87169.38;;;5.24;100.00
11678;BME280;5895;41.950;24.372;2023-05-13T00:33:10;87167.38;;;5.26;100.00
11678;BME280;5895;41.950;24.372;2023-05-13T00:35:38;87168.97;;;5.27;100.00
11678;BME280;5895;41.950;24.372;2023-05-13T00:38:06;87168.03;;;5.28;100.00
11678;BME280;5895;41.950;24.372;2023-05-13T00:40:36;87168.63;;;5.30;100.00
11678;BME280;5895;41.950;24.372;2023-05-13T00:43:04;87168.41;;;5.32;100.00
11678;BME280;5895;41.950;24.372;2023-05-13T00:45:31;87182.06;;;5.32;100.00
11678;BME280;5895;41.950;24.372;2023-05-13T00:47:58;87169.84;;;5.35;100.00
11678;BME280;5895;41.950;24.372;2023-05-13T00:50:26;87171.41;;;5.36;100.00
11678;BME280;5895;41.950;24.372;2023-05-13T00:52:56;87166.28;;;5.36;100.00
11678;BME280;5895;41.950;24.372;2023-05-13T00:55:24;87157.56;;;5.37;100.00
11678;BME280;5895;41.950;24.372;2023-05-13T00:57:52;87158.56;;;5.36;100.00
11678;BME280;5895;41.950;24.372;2023-05-13T01:00:19;87162.72;;;5.37;100.00
11678;BME280;5895;41.950;24.372;2023-05-13T01:02:51;87173.41;;;5.34;100.00
11678;BME280;5895;41.950;24.372;2023-05-13T01:05:26;87178.13;;;5.30;100.00
11678;BME280;5895;41.950;24.372;2023-05-13T01:08:00;87179.47;;;5.26;100.00
11678;BME280;5895;41.950;24.372;2023-05-13T01:10:35;87174.13;;;5.27;100.00
11678;BME280;5895;41.950;24.372;2023-05-13T01:13:07;87176.09;;;5.25;100.00
11678;BME280;5895;41.950;24.372;2023-05-13T01:15:39;87179.25;;;5.27;100.00
11678;BME280;5895;41.950;24.372;2023-05-13T01:18:09;87168.38;;;5.25;100.00
11678;BME280;5895;41.950;24.372;2023-05-13T01:20:40;87178.88;;;5.24;100.00
11678;BME280;5895;41.950;24.372;2023-05-13T01:23:10;87183.22;;;5.23;100.00
11678;BME280;5895;41.950;24.372;2023-05-13T01:25:37;87184.00;;;5.24;100.00
11678;BME280;5895;41.950;24.372;2023-05-13T01:28:05;87184.81;;;5.24;100.00
11678;BME280;5895;41.950;24.372;2023-05-13T01:30:33;87180.44;;;5.25;100.00
11678;BME280;5895;41.950;24.372;2023-05-13T01:33:00;87184.00;;;5.24;100.00
11678;BME280;5895;41.950;24.372;2023-05-13T01:35:28;87183.81;;;5.25;100.00
11678;BME280;5895;41.950;24.372;2023-05-13T01:37:58;87179.47;;;5.26;100.00
11678;BME280;5895;41.950;24.372;2023-05-13T01:40:28;87182.81;;;5.26;100.00
11678;BME280;5895;41.950;24.372;2023-05-13T01:42:55;87182.81;;;5.26;100.00
11678;BME280;5895;41.950;24.372;2023-05-13T01:45:22;87180.88;;;5.28;100.00
11678;BME280;5895;41.950;24.372;2023-05-13T01:47:50;87183.47;;;5.28;100.00
11678;BME280;5895;41.950;24.372;2023-05-13T01:50:17;87173.53;;;5.25;100.00
11678;BME280;5895;41.950;24.372;2023-05-13T01:52:44;87176.09;;;5.25;100.00
11678;BME280;5895;41.950;24.372;2023-05-13T01:55:11;87187.81;;;5.28;100.00
11678;BME280;5895;41.950;24.372;2023-05-13T01:57:40;87186.03;;;5.28;100.00
11678;BME280;5895;41.950;24.372;2023-05-13T02:00:08;87187.63;;;5.29;100.00
11678;BME280;5895;41.950;24.372;2023-05-13T02:02:35;87182.66;;;5.28;100.00
11678;BME280;5895;41.950;24.372;2023-05-13T02:05:02;87185.22;;;5.28;100.00
11678;BME280;5895;41.950;24.372;2023-05-13T02:07:30;87179.25;;;5.27;100.00
11678;BME280;5895;41.950;24.372;2023-05-13T02:09:57;87185.59;;;5.25;100.00
11678;BME280;5895;41.950;24.372;2023-05-13T02:12:24;87185.78;;;5.23;100.00
11678;BME280;5895;41.950;24.372;2023-05-13T02:14:54;87182.22;;;5.24;100.00
11678;BME280;5895;41.950;24.372;2023-05-13T02:17:21;87186.38;;;5.25;100.00
11678;BME280;5895;41.950;24.372;2023-05-13T02:19:48;87189.56;;;5.27;100.00
11678;BME280;5895;41.950;24.372;2023-05-13T02:22:15;87186.03;;;5.28;100.00
11678;BME280;5895;41.950;24.372;2023-05-13T02:24:42;87177.31;;;5.29;100.00
11678;BME280;5895;41.950;24.372;2023-05-13T02:27:10;87172.19;;;5.29;100.00
11678;BME280;5895;41.950;24.372;2023-05-13T02:29:40;87177.31;;;5.29;100.00
11678;BME280;5895;41.950;24.372;2023-05-13T02:32:09;87173.75;;;5.30;100.00
11678;BME280;5895;41.950;24.372;2023-05-13T02:34:36;87177.91;;;5.31;100.00
11678;BME280;5895;41.950;24.372;2023-05-13T02:37:04;87180.50;;;5.31;100.00
11678;BME280;5895;41.950;24.372;2023-05-13T02:39:31;87193.97;;;5.34;100.00
11678;BME280;5895;41.950;24.372;2023-05-13T02:41:58;87198.31;;;5.33;100.00
11678;BME280;5895;41.950;24.372;2023-05-13T02:44:25;87193.00;;;5.35;100.00
11678;BME280;5895;41.950;24.372;2023-05-13T02:46:53;87191.22;;;5.35;100.00
11678;BME280;5895;41.950;24.372;2023-05-13T02:49:21;87191.00;;;5.37;100.00
11678;BME280;5895;41.950;24.372;2023-05-13T02:51:48;87186.06;;;5.35;100.00
11678;BME280;5895;41.950;24.372;2023-05-13T02:54:15;87186.84;;;5.36;100.00
11678;BME280;5895;41.950;24.372;2023-05-13T02:56:42;87191.63;;;5.39;100.00
11678;BME280;5895;41.950;24.372;2023-05-13T02:59:10;87186.09;;;5.42;100.00
11678;BME280;5895;41.950;24.372;2023-05-13T03:01:37;87191.06;;;5.43;100.00
11678;BME280;5895;41.950;24.372;2023-05-13T03:04:04;87193.47;;;5.45;100.00
11678;BME280;5895;41.950;24.372;2023-05-13T03:06:32;87196.63;;;5.47;100.00
11678;BME280;5895;41.950;24.372;2023-05-13T03:09:00;87196.44;;;5.48;100.00
11678;BME280;5895;41.950;24.372;2023-05-13T03:11:27;87203.97;;;5.50;100.00
11678;BME280;5895;41.950;24.372;2023-05-13T03:13:54;87208.16;;;5.51;100.00
11678;BME280;5895;41.950;24.372;2023-05-13T03:16:21;87217.44;;;5.52;100.00
11678;BME280;5895;41.950;24.372;2023-05-13T03:18:48;87209.53;;;5.53;100.00
11678;BME280;5895;41.950;24.372;2023-05-13T03:21:15;87217.84;;;5.55;100.00
11678;BME280;5895;41.950;24.372;2023-05-13T03:23:44;87216.69;;;5.58;100.00
11678;BME280;5895;41.950;24.372;2023-05-13T03:26:11;87222.44;;;5.60;100.00
11678;BME280;5895;41.950;24.372;2023-05-13T03:28:38;87227.41;;;5.62;100.00
11678;BME280;5895;41.950;24.372;2023-05-13T03:31:05;87232.56;;;5.62;100.00
11678;BME280;5895;41.950;24.372;2023-05-13T03:33:32;87232.97;;;5.65;100.00
11678;BME280;5895;41.950;24.372;2023-05-13T03:35:59;87232.59;;;5.68;100.00
11678;BME280;5895;41.950;24.372;2023-05-13T03:38:26;87237.56;;;5.70;100.00
11678;BME280;5895;41.950;24.372;2023-05-13T03:40:55;87236.22;;;5.74;100.00
11678;BME280;5895;41.950;24.372;2023-05-13T03:43:22;87242.75;;;5.76;100.00
11678;BME280;5895;41.950;24.372;2023-05-13T03:45:49;87228.72;;;5.79;100.00
11678;BME280;5895;41.950;24.372;2023-05-13T03:48:16;87224.94;;;5.81;100.00
11678;BME280;5895;41.950;24.372;2023-05-13T03:50:44;87222.38;;;5.81;100.00
11678;BME280;5895;41.950;24.372;2023-05-13T03:53:11;87231.53;;;5.84;100.00
11678;BME280;5895;41.950;24.372;2023-05-13T03:55:38;87219.25;;;5.86;100.00
11678;BME280;5895;41.950;24.372;2023-05-13T03:58:13;87218.06;;;5.89;100.00
11678;BME280;5895;41.950;24.372;2023-05-13T04:00:42;87213.53;;;5.91;100.00
11678;BME280;5895;41.950;24.372;2023-05-13T04:03:11;87212.56;;;5.92;100.00
11678;BME280;5895;41.950;24.372;2023-05-13T04:05:38;87218.94;;;5.96;100.00
11678;BME280;5895;41.950;24.372;2023-05-13T04:08:05;87223.69;;;5.99;100.00
11678;BME280;5895;41.950;24.372;2023-05-13T04:10:33;87223.31;;;6.02;100.00
11678;BME280;5895;41.950;24.372;2023-05-13T04:13:00;87225.31;;;6.06;100.00
11678;BME280;5895;41.950;24.372;2023-05-13T04:15:28;87222.16;;;6.11;100.00
11678;BME280;5895;41.950;24.372;2023-05-13T04:17:56;87221.78;;;6.14;100.00
11678;BME280;5895;41.950;24.372;2023-05-13T04:20:23;87220.03;;;6.21;100.00
11678;BME280;5895;41.950;24.372;2023-05-13T04:22:51;87222.81;;;6.26;100.00
11678;BME280;5895;41.950;24.372;2023-05-13T04:25:18;87222.47;;;6.29;100.00
11678;BME280;5895;41.950;24.372;2023-05-13T04:27:45;87232.59;;;6.38;100.00
11678;BME280;5895;41.950;24.372;2023-05-13T04:30:13;87232.00;;;6.42;100.00
11678;BME280;5895;41.950;24.372;2023-05-13T04:32:42;87240.16;;;6.46;100.00
11678;BME280;5895;41.950;24.372;2023-05-13T04:35:09;87235.41;;;6.56;100.00
11678;BME280;5895;41.950;24.372;2023-05-13T04:37:37;87232.69;;;6.64;100.00
11678;BME280;5895;41.950;24.372;2023-05-13T04:40:06;87242.22;;;6.70;100.00
11678;BME280;5895;41.950;24.372;2023-05-13T04:42:33;87239.06;;;6.75;100.00
11678;BME280;5895;41.950;24.372;2023-05-13T04:45:00;87239.28;;;6.86;100.00
11678;BME280;5895;41.950;24.372;2023-05-13T04:47:27;87253.78;;;6.94;100.00
11678;BME280;5895;41.950;24.372;2023-05-13T04:49:56;87252.19;;;7.00;100.00
11678;BME280;5895;41.950;24.372;2023-05-13T04:52:23;87269.47;;;7.06;100.00
11678;BME280;5895;41.950;24.372;2023-05-13T04:54:50;87264.53;;;7.11;100.00
11678;BME280;5895;41.950;24.372;2023-05-13T04:57:17;87267.31;;;7.16;100.00
11678;BME280;5895;41.950;24.372;2023-05-13T04:59:45;87259.78;;;7.21;100.00
11678;BME280;5895;41.950;24.372;2023-05-13T05:02:12;87263.56;;;7.25;100.00
11678;BME280;5895;41.950;24.372;2023-05-13T05:04:39;87270.13;;;7.28;100.00
11678;BME280;5895;41.950;24.372;2023-05-13T05:07:07;87276.69;;;7.30;100.00
11678;BME280;5895;41.950;24.372;2023-05-13T05:09:35;87275.47;;;7.26;100.00
11678;BME280;5895;41.950;24.372;2023-05-13T05:12:02;87280.84;;;7.25;100.00
11678;BME280;5895;41.950;24.372;2023-05-13T05:14:29;87272.31;;;7.24;100.00
11678;BME280;5895;41.950;24.372;2023-05-13T05:16:56;87279.06;;;7.25;100.00
11678;BME280;5895;41.950;24.372;2023-05-13T05:19:23;87273.47;;;7.28;100.00
11678;BME280;5895;41.950;24.372;2023-05-13T05:21:51;87275.06;;;7.29;100.00
11678;BME280;5895;41.950;24.372;2023-05-13T05:24:19;87279.25;;;7.30;100.00
11678;BME280;5895;41.950;24.372;2023-05-13T05:26:47;87278.28;;;7.31;100.00
11678;BME280;5895;41.950;24.372;2023-05-13T05:29:14;87280.84;;;7.31;100.00
11678;BME280;5895;41.950;24.372;2023-05-13T05:31:41;87280.84;;;7.31;100.00
11678;BME280;5895;41.950;24.372;2023-05-13T05:34:08;87269.72;;;7.31;100.00
11678;BME280;5895;41.950;24.372;2023-05-13T05:36:35;87278.47;;;7.30;100.00
11678;BME280;5895;41.950;24.372;2023-05-13T05:39:02;87268.53;;;7.27;100.00
11678;BME280;5895;41.950;24.372;2023-05-13T05:41:32;87273.69;;;7.27;100.00
11678;BME280;5895;41.950;24.372;2023-05-13T05:43:59;87272.91;;;7.26;100.00
11678;BME280;5895;41.950;24.372;2023-05-13T05:46:26;87278.06;;;7.26;100.00
11678;BME280;5895;41.950;24.372;2023-05-13T05:48:53;87282.81;;;7.29;100.00
11678;BME280;5895;41.950;24.372;2023-05-13T05:51:20;87272.50;;;7.29;100.00
11678;BME280;5895;41.950;24.372;2023-05-13T05:53:48;87278.06;;;7.33;100.00
11678;BME280;5895;41.950;24.372;2023-05-13T05:56:15;87280.06;;;7.37;100.00
11678;BME280;5895;41.950;24.372;2023-05-13T05:58:43;87289.97;;;7.40;100.00
11678;BME280;5895;41.950;24.372;2023-05-13T06:01:10;87282.84;;;7.42;100.00
11678;BME280;5895;41.950;24.372;2023-05-13T06:03:37;87290.00;;;7.47;100.00
11678;BME280;5895;41.950;24.372;2023-05-13T06:06:05;87288.44;;;7.53;100.00
11678;BME280;5895;41.950;24.372;2023-05-13T06:08:32;87284.84;;;7.54;100.00
11678;BME280;5895;41.950;24.372;2023-05-13T06:10:59;87291.22;;;7.58;100.00
11678;BME280;5895;41.950;24.372;2023-05-13T06:13:26;87294.78;;;7.63;100.00
11678;BME280;5895;41.950;24.372;2023-05-13T06:15:55;87298.38;;;7.69;100.00
11678;BME280;5895;41.950;24.372;2023-05-13T06:18:22;87292.41;;;7.75;100.00
11678;BME280;5895;41.950;24.372;2023-05-13T06:20:49;87296.16;;;7.79;100.00
11678;BME280;5895;41.950;24.372;2023-05-13T06:23:16;87291.19;;;7.84;100.00
11678;BME280;5895;41.950;24.372;2023-05-13T06:25:43;87301.13;;;7.94;100.00
11678;BME280;5895;41.950;24.372;2023-05-13T06:28:11;87295.56;;;8.04;100.00
11678;BME280;5895;41.950;24.372;2023-05-13T06:30:38;87289.59;;;8.10;100.00
11678;BME280;5895;41.950;24.372;2023-05-13T06:33:07;87292.16;;;8.23;100.00
11678;BME280;5895;41.950;24.372;2023-05-13T06:35:35;87291.19;;;8.37;100.00
11678;BME280;5895;41.950;24.372;2023-05-13T06:38:02;87289.75;;;8.48;100.00
11678;BME280;5895;41.950;24.372;2023-05-13T06:40:29;87290.72;;;8.60;100.00
11678;BME280;5895;41.950;24.372;2023-05-13T06:42:56;87295.06;;;8.73;100.00
11678;BME280;5895;41.950;24.372;2023-05-13T06:45:23;87287.84;;;8.88;100.00
11678;BME280;5895;41.950;24.372;2023-05-13T06:47:51;87299.38;;;8.92;100.00
11678;BME280;5895;41.950;24.372;2023-05-13T06:50:20;87304.56;;;8.92;100.00
11678;BME280;5895;41.950;24.372;2023-05-13T06:52:47;87302.94;;;8.91;100.00
11678;BME280;5895;41.950;24.372;2023-05-13T06:55:14;87302.94;;;8.98;100.00
11678;BME280;5895;41.950;24.372;2023-05-13T06:57:43;87306.47;;;9.10;100.00
11678;BME280;5895;41.950;24.372;2023-05-13T07:00:12;87317.97;;;9.14;100.00
11678;BME280;5895;41.950;24.372;2023-05-13T07:02:39;87300.81;;;9.20;100.00
11678;BME280;5895;41.950;24.372;2023-05-13T07:05:07;87298.00;;;9.28;100.00
11678;BME280;5895;41.950;24.372;2023-05-13T07:07:36;87295.84;;;9.57;100.00
11678;BME280;5895;41.950;24.372;2023-05-13T07:10:03;87300.91;;;9.76;100.00
11678;BME280;5895;41.950;24.372;2023-05-13T07:12:30;87300.28;;;9.81;100.00
11678;BME280;5895;41.950;24.372;2023-05-13T07:14:57;87300.88;;;9.83;100.00
11678;BME280;5895;41.950;24.372;2023-05-13T07:17:24;87305.44;;;9.81;100.00
11678;BME280;5895;41.950;24.372;2023-05-13T07:19:52;87307.84;;;9.83;100.00
11678;BME280;5895;41.950;24.372;2023-05-13T07:22:19;87309.38;;;9.90;100.00
11678;BME280;5895;41.950;24.372;2023-05-13T07:24:47;87303.78;;;9.93;100.00
11678;BME280;5895;41.950;24.372;2023-05-13T07:27:14;87309.72;;;10.00;100.00
11678;BME280;5895;41.950;24.372;2023-05-13T07:29:41;87310.19;;;10.16;100.00
11678;BME280;5895;41.950;24.372;2023-05-13T07:32:08;87303.16;;;10.23;100.00
11678;BME280;5895;41.950;24.372;2023-05-13T07:34:36;87294.50;;;10.36;100.00
11678;BME280;5895;41.950;24.372;2023-05-13T07:37:03;87295.19;;;10.68;100.00
11678;BME280;5895;41.950;24.372;2023-05-13T07:39:30;87307.94;;;10.88;99.21
11678;BME280;5895;41.950;24.372;2023-05-13T07:41:59;87306.44;;;10.98;98.77
11678;BME280;5895;41.950;24.372;2023-05-13T07:44:26;87295.53;;;11.08;98.70
11678;BME280;5895;41.950;24.372;2023-05-13T07:46:54;87300.25;;;11.18;98.18
11678;BME280;5895;41.950;24.372;2023-05-13T07:49:21;87297.47;;;11.31;97.87
11678;BME280;5895;41.950;24.372;2023-05-13T07:51:48;87300.03;;;11.49;96.68
11678;BME280;5895;41.950;24.372;2023-05-13T07:54:16;87303.47;;;11.61;95.84
11678;BME280;5895;41.950;24.372;2023-05-13T07:56:43;87306.19;;;11.66;95.08
11678;BME280;5895;41.950;24.372;2023-05-13T07:59:12;87308.84;;;11.78;96.87
11678;BME280;5895;41.950;24.372;2023-05-13T08:01:40;87310.63;;;11.96;96.50
11678;BME280;5895;41.950;24.372;2023-05-13T08:04:07;87312.47;;;12.07;94.56
11678;BME280;5895;41.950;24.372;2023-05-13T08:06:35;87313.16;;;12.14;94.44
11678;BME280;5895;41.950;24.372;2023-05-13T08:09:02;87315.09;;;12.19;94.50
11678;BME280;5895;41.950;24.372;2023-05-13T08:23:24;87303.59;;;13.09;87.70
11678;BME280;5895;41.950;24.372;2023-05-13T08:25:51;87307.78;;;13.21;88.95
11678;BME280;5895;41.950;24.372;2023-05-13T08:28:18;87302.66;;;13.38;89.45
11678;BME280;5895;41.950;24.372;2023-05-13T08:30:45;87302.81;;;13.60;88.87
11678;BME280;5895;41.950;24.372;2023-05-13T08:33:12;87299.66;;;13.87;88.35
11678;BME280;5895;41.950;24.372;2023-05-13T08:35:39;87301.47;;;14.15;89.42
11678;BME280;5895;41.950;24.372;2023-05-13T08:38:07;87300.53;;;14.38;88.57
11678;BME280;5895;41.950;24.372;2023-05-13T08:40:35;87302.94;;;14.56;87.86
11678;BME280;5895;41.950;24.372;2023-05-13T08:43:03;87309.59;;;14.80;87.63
11678;BME280;5895;41.950;24.372;2023-05-13T08:45:32;87304.66;;;15.01;88.02
11678;BME280;5895;41.950;24.372;2023-05-13T08:48:00;87303.84;;;15.17;87.45
11678;BME280;5895;41.950;24.372;2023-05-13T08:50:28;87303.38;;;15.42;86.63
11678;BME280;5895;41.950;24.372;2023-05-13T08:52:56;87303.25;;;15.54;85.74
11678;BME280;5895;41.950;24.372;2023-05-13T08:55:24;87314.53;;;15.32;85.58
11678;BME280;5895;41.950;24.372;2023-05-13T08:57:53;87310.03;;;15.11;87.13
11678;BME280;5895;41.950;24.372;2023-05-13T09:00:21;87322.34;;;14.94;87.91
11678;BME280;5895;41.950;24.372;2023-05-13T09:02:48;87313.22;;;14.79;89.31
11678;BME280;5895;41.950;24.372;2023-05-13T09:05:16;87310.94;;;14.66;89.38
11678;BME280;5895;41.950;24.372;2023-05-13T09:07:44;87302.41;;;14.54;90.10
11678;BME280;5895;41.950;24.372;2023-05-13T09:10:11;87308.47;;;14.43;89.85
11678;BME280;5895;41.950;24.372;2023-05-13T09:12:43;87313.97;;;14.29;86.74
11678;BME280;5895;41.950;24.372;2023-05-13T09:15:13;87315.97;;;14.39;89.22
11678;BME280;5895;41.950;24.372;2023-05-13T09:17:41;87313.47;;;14.61;89.81
11678;BME280;5895;41.950;24.372;2023-05-13T09:20:11;87310.06;;;14.77;88.79
11678;BME280;5895;41.950;24.372;2023-05-13T09:22:46;87315.84;;;14.79;85.18
11678;BME280;5895;41.950;24.372;2023-05-13T09:25:15;87319.03;;;15.20;87.68
11678;BME280;5895;41.950;24.372;2023-05-13T09:27:45;87321.25;;;15.28;85.73
11678;BME280;5895;41.950;24.372;2023-05-13T09:30:14;87318.47;;;15.35;87.60
11678;BME280;5895;41.950;24.372;2023-05-13T09:32:41;87311.13;;;15.54;86.69
11678;BME280;5895;41.950;24.372;2023-05-13T09:35:13;87309.91;;;15.61;84.24
11678;BME280;5895;41.950;24.372;2023-05-13T09:37:46;87306.44;;;15.56;85.89
11678;BME280;5895;41.950;24.372;2023-05-13T09:40:15;87300.88;;;15.69;87.24
11678;BME280;5895;41.950;24.372;2023-05-13T09:42:43;87307.88;;;15.64;86.86
11678;BME280;5895;41.950;24.372;2023-05-13T09:45:13;87315.13;;;15.78;87.60
11678;BME280;5895;41.950;24.372;2023-05-13T09:47:41;87301.81;;;16.07;86.23
11678;BME280;5895;41.950;24.372;2023-05-13T09:50:10;87306.19;;;16.23;85.29
11678;BME280;5895;41.950;24.372;2023-05-13T09:52:38;87302.69;;;16.39;84.05
11678;BME280;5895;41.950;24.372;2023-05-13T09:55:08;87309.06;;;16.54;82.78
11678;BME280;5895;41.950;24.372;2023-05-13T09:57:35;87300.31;;;16.70;84.55
11678;BME280;5895;41.950;24.372;2023-05-13T10:00:04;87307.31;;;16.91;84.52
11678;BME280;5895;41.950;24.372;2023-05-13T10:02:33;87314.78;;;17.10;83.93
11678;BME280;5895;41.950;24.372;2023-05-13T10:05:01;87321.69;;;17.21;83.14
11678;BME280;5895;41.950;24.372;2023-05-13T10:07:28;87314.38;;;17.23;83.31
11678;BME280;5895;41.950;24.372;2023-05-13T10:10:00;87317.66;;;17.45;83.21
11678;BME280;5895;41.950;24.372;2023-05-13T10:12:30;87317.00;;;17.28;82.73
11678;BME280;5895;41.950;24.372;2023-05-13T10:14:58;87319.97;;;17.00;84.05
11678;BME280;5895;41.950;24.372;2023-05-13T10:17:28;87321.09;;;16.77;82.50
11678;BME280;5895;41.950;24.372;2023-05-13T10:19:57;87322.69;;;16.51;83.50
11678;BME280;5895;41.950;24.372;2023-05-13T10:22:27;87319.72;;;16.42;83.03
11678;BME280;5895;41.950;24.372;2023-05-13T10:24:56;87318.56;;;16.60;83.32
11678;BME280;5895;41.950;24.372;2023-05-13T10:27:28;87320.97;;;16.93;81.15
11678;BME280;5895;41.950;24.372;2023-05-13T10:29:55;87319.63;;;17.23;82.01
11678;BME280;5895;41.950;24.372;2023-05-13T10:32:23;87319.72;;;17.43;81.92
11678;BME280;5895;41.950;24.372;2023-05-13T10:34:53;87320.94;;;17.68;79.82
11678;BME280;5895;41.950;24.372;2023-05-13T10:37:36;87314.50;;;17.91;69.84
11678;BME280;5895;41.950;24.372;2023-05-13T10:40:24;87321.84;;;17.94;68.76
11678;BME280;5895;41.950;24.372;2023-05-13T10:43:08;87320.00;;;17.89;74.45
11678;BME280;5895;41.950;24.372;2023-05-13T10:45:35;87323.72;;;17.98;79.77
11678;BME280;5895;41.950;24.372;2023-05-13T10:48:06;87319.47;;;17.87;77.64
11678;BME280;5895;41.950;24.372;2023-05-13T10:50:35;87320.72;;;17.75;80.11
11678;BME280;5895;41.950;24.372;2023-05-13T10:53:09;87323.94;;;17.87;72.90
11678;BME280;5895;41.950;24.372;2023-05-13T10:55:44;87330.88;;;17.66;80.66
11678;BME280;5895;41.950;24.372;2023-05-13T10:58:12;87331.38;;;17.58;80.75
11678;BME280;5895;41.950;24.372;2023-05-13T11:00:41;87325.09;;;17.64;81.79
11678;BME280;5895;41.950;24.372;2023-05-13T11:03:10;87331.88;;;17.55;80.58
11678;BME280;5895;41.950;24.372;2023-05-13T11:05:39;87336.06;;;17.56;80.00
11678;BME280;5895;41.950;24.372;2023-05-13T11:08:08;87325.38;;;17.67;80.07
11678;BME280;5895;41.950;24.372;2023-05-13T11:10:36;87324.03;;;17.60;81.34
11678;BME280;5895;41.950;24.372;2023-05-13T11:13:21;87325.97;;;17.32;73.11
11678;BME280;5895;41.950;24.372;2023-05-13T11:15:51;87333.56;;;17.34;81.22
11678;BME280;5895;41.950;24.372;2023-05-13T11:18:19;87335.31;;;17.18;81.00
11678;BME280;5895;41.950;24.372;2023-05-13T11:20:54;87327.38;;;17.08;81.11
11678;BME280;5895;41.950;24.372;2023-05-13T11:23:23;87332.75;;;17.28;80.60
11678;BME280;5895;41.950;24.372;2023-05-13T11:26:08;87334.97;;;17.47;70.49
11678;BME280;5895;41.950;24.372;2023-05-13T11:28:55;87336.19;;;17.29;69.27
11678;BME280;5895;41.950;24.372;2023-05-13T11:31:24;87338.72;;;17.18;80.03
11678;BME280;5895;41.950;24.372;2023-05-13T11:34:08;87341.13;;;17.25;68.25
11678;BME280;5895;41.950;24.372;2023-05-13T11:36:37;87337.50;;;17.31;80.83
11678;BME280;5895;41.950;24.372;2023-05-13T11:39:11;87343.16;;;17.13;75.09
11678;BME280;5895;41.950;24.372;2023-05-13T11:41:40;87346.28;;;17.15;80.15
11678;BME280;5895;41.950;24.372;2023-05-13T11:44:10;87330.91;;;17.24;79.93
11678;BME280;5895;41.950;24.372;2023-05-13T11:46:37;87339.63;;;17.39;79.18
11678;BME280;5895;41.950;24.372;2023-05-13T11:49:05;87337.44;;;17.21;79.57
11678;BME280;5895;41.950;24.372;2023-05-13T11:51:32;87337.22;;;16.90;79.74
11678;BME280;5895;41.950;24.372;2023-05-13T11:54:03;87340.19;;;16.72;80.17
11678;BME280;5895;41.950;24.372;2023-05-13T11:56:32;87345.31;;;16.62;79.71
11678;BME280;5895;41.950;24.372;2023-05-13T11:59:12;87340.03;;;16.57;73.88
11678;BME280;5895;41.950;24.372;2023-05-13T12:01:40;87343.19;;;16.59;80.87
11678;BME280;5895;41.950;24.372;2023-05-13T12:04:07;87345.47;;;16.50;80.52
11678;BME280;5895;41.950;24.372;2023-05-13T12:06:41;87336.94;;;16.38;80.99
11678;BME280;5895;41.950;24.372;2023-05-13T12:09:10;87344.47;;;16.29;80.01
11678;BME280;5895;41.950;24.372;2023-05-13T12:11:39;87347.09;;;16.29;81.36
11678;BME280;5895;41.950;24.372;2023-05-13T12:14:07;87343.31;;;16.20;82.18
11678;BME280;5895;41.950;24.372;2023-05-13T12:16:34;87348.28;;;15.95;81.16
11678;BME280;5895;41.950;24.372;2023-05-13T12:19:05;87356.97;;;15.78;77.04
11678;BME280;5895;41.950;24.372;2023-05-13T12:21:34;87368.72;;;15.59;79.87
11678;BME280;5895;41.950;24.372;2023-05-13T12:24:16;87373.03;;;15.48;73.55
11678;BME280;5895;41.950;24.372;2023-05-13T12:26:44;87364.28;;;15.59;82.44
11678;BME280;5895;41.950;24.372;2023-05-13T12:29:12;87365.22;;;15.70;84.08
11678;BME280;5895;41.950;24.372;2023-05-13T12:31:41;87373.66;;;15.72;83.84
11678;BME280;5895;41.950;24.372;2023-05-13T12:34:09;87364.41;;;15.86;85.28
11678;BME280;5895;41.950;24.372;2023-05-13T12:36:37;87363.06;;;16.06;87.48
11678;BME280;5895;41.950;24.372;2023-05-13T12:39:05;87371.84;;;16.22;88.15
11678;BME280;5895;41.950;24.372;2023-05-13T12:41:34;87353.66;;;16.32;86.14
11678;BME280;5895;41.950;24.372;2023-05-13T12:44:07;87355.59;;;16.42;87.12
11678;BME280;5895;41.950;24.372;2023-05-13T12:46:35;87355.41;;;16.75;87.03
11678;BME280;5895;41.950;24.372;2023-05-13T12:49:03;87344.97;;;17.12;82.21
11678;BME280;5895;41.950;24.372;2023-05-13T12:51:31;87338.63;;;17.40;84.13
11678;BME280;5895;41.950;24.372;2023-05-13T12:53:59;87344.56;;;17.68;82.15
11678;BME280;5895;41.950;24.372;2023-05-13T12:56:26;87331.59;;;17.98;83.37
11678;BME280;5895;41.950;24.372;2023-05-13T12:58:53;87334.81;;;18.16;82.92
11678;BME280;5895;41.950;24.372;2023-05-13T13:01:22;87341.13;;;18.15;80.80
11678;BME280;5895;41.950;24.372;2023-05-13T13:03:49;87339.06;;;18.32;82.05
11678;BME280;5895;41.950;24.372;2023-05-13T13:06:17;87326.53;;;18.55;80.91
11678;BME280;5895;41.950;24.372;2023-05-13T13:08:44;87329.47;;;18.79;78.96
11678;BME280;5895;41.950;24.372;2023-05-13T13:11:11;87333.44;;;19.01;77.64
11678;BME280;5895;41.950;24.372;2023-05-13T13:13:43;87320.28;;;18.96;77.88
11678;BME280;5895;41.950;24.372;2023-05-13T13:16:10;87318.44;;;18.76;75.66
11678;BME280;5895;41.950;24.372;2023-05-13T13:18:39;87334.38;;;18.44;75.37